Time;durP1;ratioP1;P1;durP2;ratioP2;P2;SDS_P1;SDS_P2;PMS_P1;PMS_P2;Temp;Humidity;BMP_temperature;BMP_pressure;BME280_temperature;BME280_humidity;BME280_pressure;Samples;Min_cycle;Max_cycle;Signal;HPM_P1;HPM_P2
2022/11/19 00:01:03;;;;;;;4.47;4.37;;;25.20;64.50;;;;;;5053947;28;20534;-60
2022/11/19 00:03:32;;;;;;;5.10;4.93;;;25.20;64.30;;;;;;5054556;28;20519;-57
2022/11/19 00:06:03;;;;;;;3.83;3.67;;;25.20;63.90;;;;;;5054357;28;20455;-58
2022/11/19 00:08:32;;;;;;;4.60;4.50;;;25.20;64.00;;;;;;5053999;28;20546;-61
2022/11/19 00:11:04;;;;;;;3.13;3.03;;;25.20;63.90;;;;;;5054422;28;20451;-59
2022/11/19 00:13:31;;;;;;;3.80;3.70;;;25.30;64.30;;;;;;5054103;28;20440;-65
2022/11/19 00:16:03;;;;;;;3.40;3.30;;;25.30;63.10;;;;;;5054589;28;20442;-66
2022/11/19 00:18:30;;;;;;;4.30;4.10;;;25.10;60.90;;;;;;5054181;28;20464;-66
2022/11/19 00:21:03;;;;;;;3.73;3.53;;;24.80;61.30;;;;;;5054306;28;20448;-66
2022/11/19 00:23:31;;;;;;;3.40;3.30;;;24.60;62.00;;;;;;5054233;28;20508;-66
2022/11/19 00:26:04;;;;;;;3.27;3.17;;;24.50;62.60;;;;;;5054204;28;20533;-66
2022/11/19 00:28:31;;;;;;;3.43;3.03;;;24.30;63.10;;;;;;5054005;28;20495;-65
2022/11/19 00:31:03;;;;;;;3.57;3.37;;;24.20;63.60;;;;;;5054250;28;20870;-66
2022/11/19 00:33:30;;;;;;;3.90;3.60;;;24.10;64.10;;;;;;5054193;28;20934;-68
2022/11/19 00:35:58;;;;;;;2.97;2.87;;;24.00;64.60;;;;;;5054407;28;20475;-65
2022/11/19 00:38:25;;;;;;;3.20;3.10;;;23.90;64.90;;;;;;5053359;28;20460;-65
2022/11/19 00:40:53;;;;;;;3.60;3.47;;;23.80;65.20;;;;;;5054289;28;20875;-64
2022/11/19 00:46:07;;;;;;;3.20;3.10;;;23.70;66.00;;;;;;5054275;28;20427;-65
2022/11/19 00:48:34;;;;;;;4.17;3.97;;;23.60;66.30;;;;;;5053923;28;20488;-64
2022/11/19 00:51:01;;;;;;;3.70;3.50;;;23.50;66.70;;;;;;5054189;28;21041;-65
2022/11/19 00:53:29;;;;;;;3.33;3.23;;;23.40;66.90;;;;;;5054274;28;20451;-64
2022/11/19 00:56:00;;;;;;;3.47;3.23;;;23.40;67.20;;;;;;5053895;28;20543;-68
2022/11/19 00:58:28;;;;;;;3.47;3.37;;;23.30;67.50;;;;;;5033695;28;20472;-65
2022/11/19 01:00:56;;;;;;;3.60;3.40;;;23.20;67.70;;;;;;5034495;28;20504;-64
2022/11/19 01:03:24;;;;;;;3.97;3.77;;;23.20;68.00;;;;;;5033752;28;20484;-63
2022/11/19 01:05:51;;;;;;;3.40;3.30;;;23.20;68.20;;;;;;5033865;28;20460;-65
2022/11/19 01:08:19;;;;;;;3.40;3.23;;;23.10;68.40;;;;;;5033466;28;20464;-65
2022/11/19 01:10:46;;;;;;;3.63;3.43;;;23.10;68.60;;;;;;5035680;28;20476;-65
2022/11/19 01:15:59;;;;;;;3.57;3.40;;;23.00;69.80;;;;;;5053882;28;20416;-63
2022/11/19 01:18:28;;;;;;;3.90;3.70;;;22.90;69.30;;;;;;5053046;28;21004;-66
2022/11/19 01:20:55;;;;;;;3.87;3.67;;;22.80;69.40;;;;;;5052826;28;20506;-63
2022/11/19 01:23:22;;;;;;;3.47;3.37;;;22.90;69.70;;;;;;5053396;28;20480;-65
2022/11/19 01:25:49;;;;;;;3.80;3.60;;;22.80;69.80;;;;;;5053153;28;20445;-66
2022/11/19 01:28:18;;;;;;;3.53;3.43;;;22.80;70.00;;;;;;5052515;28;20536;-65
2022/11/19 01:30:45;;;;;;;3.40;3.30;;;22.70;70.10;;;;;;5053172;28;20812;-65
2022/11/19 01:33:13;;;;;;;3.80;3.60;;;22.70;70.20;;;;;;5053089;28;20917;-65
2022/11/19 01:35:41;;;;;;;4.40;4.10;;;22.70;70.40;;;;;;5053163;28;21004;-67
2022/11/19 01:38:09;;;;;;;3.40;3.30;;;22.70;70.50;;;;;;5052479;28;20471;-65
2022/11/19 01:40:42;;;;;;;3.30;3.20;;;22.70;70.60;;;;;;5053037;28;20452;-65
2022/11/19 01:43:11;;;;;;;3.77;3.57;;;22.70;70.80;;;;;;5052535;28;20570;-64
2022/11/19 01:45:41;;;;;;;3.70;3.40;;;22.60;70.80;;;;;;5032679;28;20445;-64
2022/11/19 01:48:14;;;;;;;3.63;3.43;;;22.60;70.90;;;;;;5032734;28;20519;-64
2022/11/19 01:50:47;;;;;;;3.23;3.13;;;22.60;71.10;;;;;;5032818;28;20969;-64
2022/11/19 01:53:15;;;;;;;3.40;3.30;;;22.60;71.10;;;;;;5032781;28;20866;-65
2022/11/19 01:55:44;;;;;;;3.57;3.40;;;22.50;71.10;;;;;;5032777;28;20989;-65
2022/11/19 01:58:14;;;;;;;3.37;3.27;;;22.50;71.20;;;;;;5032235;28;20465;-66
2022/11/19 02:00:43;;;;;;;3.83;3.63;;;22.40;71.30;;;;;;5041788;28;20480;-65
2022/11/19 02:03:12;;;;;;;3.40;3.20;;;22.50;71.50;;;;;;5052116;28;20536;-67
2022/11/19 02:05:40;;;;;;;3.27;3.07;;;22.40;71.40;;;;;;5052277;28;20476;-66
2022/11/19 02:08:10;;;;;;;3.57;3.47;;;22.40;71.60;;;;;;5052244;28;20469;-66
2022/11/19 02:10:48;;;;;;;3.37;3.27;;;22.40;71.60;;;;;;5052479;28;20509;-66
2022/11/19 02:13:26;;;;;;;3.30;3.20;;;22.40;71.70;;;;;;5052354;28;20486;-66
2022/11/19 02:16:01;;;;;;;3.30;3.20;;;22.30;71.70;;;;;;5052402;28;20471;-66
2022/11/19 02:18:42;;;;;;;3.17;3.07;;;22.30;71.80;;;;;;5051712;28;20471;-67
2022/11/19 02:21:27;;;;;;;3.77;3.57;;;22.30;71.80;;;;;;5052327;28;20823;-66
2022/11/19 02:24:36;;;;;;;3.40;3.30;;;22.30;72.00;;;;;;5051867;28;20476;-67
2022/11/19 02:27:41;;;;;;;3.90;3.70;;;22.20;72.00;;;;;;5032149;28;20830;-65
2022/11/19 02:30:12;;;;;;;3.03;2.93;;;22.20;72.20;;;;;;5032317;28;20566;-67
2022/11/19 02:32:59;;;;;;;3.33;3.23;;;22.20;72.10;;;;;;5033096;28;20476;-67
2022/11/19 02:35:46;;;;;;;3.17;3.07;;;22.20;72.30;;;;;;5032157;28;20468;-66
2022/11/19 02:38:24;;;;;;;3.77;3.47;;;22.20;72.30;;;;;;5032143;28;20478;-66
2022/11/19 02:40:57;;;;;;;4.17;3.87;;;22.10;72.20;;;;;;5032239;28;20529;-67
2022/11/19 02:43:30;;;;;;;3.47;3.27;;;22.10;72.30;;;;;;5031939;28;20532;-67
2022/11/19 02:46:03;;;;;;;3.40;3.23;;;22.10;72.40;;;;;;5032909;28;20528;-67
2022/11/19 02:48:35;;;;;;;3.23;3.13;;;22.10;72.40;;;;;;5063948;28;20498;-66
2022/11/19 02:51:06;;;;;;;3.10;3.00;;;22.10;72.40;;;;;;5066863;28;20448;-66
2022/11/19 02:53:32;;;;;;;3.30;3.20;;;22.10;72.40;;;;;;5067605;28;20475;-66
2022/11/19 02:56:11;;;;;;;3.00;2.90;;;22.10;72.60;;;;;;5066976;28;20436;-66
2022/11/19 03:04:31;;;;;;;3.30;3.20;;;22.00;72.30;;;;;;5054089;28;20618;-66
2022/11/19 03:07:02;;;;;;;3.23;3.13;;;22.00;72.40;;;;;;5056100;28;20879;-67
2022/11/19 03:09:32;;;;;;;3.80;3.53;;;22.00;72.30;;;;;;5053932;28;20523;-66
2022/11/19 03:12:09;;;;;;;3.20;3.10;;;22.00;72.30;;;;;;5054916;28;20535;-63
2022/11/19 03:17:39;;;;;;;3.53;3.33;;;22.00;72.40;;;;;;5055130;28;20440;-65
2022/11/19 03:20:16;;;;;;;3.27;3.17;;;21.90;72.30;;;;;;5056112;28;20534;-66
2022/11/19 03:22:52;;;;;;;3.73;3.63;;;21.90;72.40;;;;;;5056260;28;20471;-66
2022/11/19 03:25:25;;;;;;;3.70;3.50;;;21.90;72.40;;;;;;5055569;28;20586;-66
2022/11/19 03:27:57;;;;;;;3.40;3.30;;;21.90;72.40;;;;;;5055979;28;20543;-66
2022/11/19 03:30:24;;;;;;;3.70;3.50;;;21.90;72.40;;;;;;5055250;28;20535;-66
2022/11/19 03:32:59;;;;;;;3.70;3.40;;;21.90;72.40;;;;;;5056011;28;20535;-66
2022/11/19 03:35:29;;;;;;;3.53;3.43;;;21.90;72.50;;;;;;5058003;28;20459;-67
2022/11/19 03:38:01;;;;;;;3.97;3.83;;;21.90;72.40;;;;;;5060162;28;20570;-66
2022/11/19 03:40:32;;;;;;;3.07;2.97;;;21.90;72.40;;;;;;5059440;28;20482;-65
2022/11/19 03:43:03;;;;;;;3.50;3.40;;;21.90;72.30;;;;;;5059158;28;20548;-65
2022/11/19 03:45:35;;;;;;;3.33;3.20;;;21.80;72.20;;;;;;5059387;28;20517;-65
2022/11/19 03:48:05;;;;;;;4.07;3.87;;;21.90;72.30;;;;;;5056801;28;21012;-66
2022/11/19 03:50:43;;;;;;;3.50;3.30;;;21.80;72.10;;;;;;5057869;28;20528;-66
2022/11/19 03:53:10;;;;;;;3.37;3.27;;;21.80;72.10;;;;;;5057171;28;20452;-66
2022/11/19 03:55:44;;;;;;;3.47;3.37;;;21.80;72.20;;;;;;5057444;28;20467;-65
2022/11/19 03:58:11;;;;;;;4.80;4.50;;;21.80;72.10;;;;;;5058119;28;20495;-66
2022/11/19 04:00:39;;;;;;;3.40;3.30;;;21.80;72.10;;;;;;5058554;28;20977;-66
2022/11/19 04:03:08;;;;;;;3.70;3.53;;;21.80;72.10;;;;;;5059226;28;20450;-65
2022/11/19 04:05:35;;;;;;;3.43;3.33;;;21.80;72.10;;;;;;5058574;28;20490;-66
2022/11/19 04:08:02;;;;;;;3.47;3.27;;;21.80;72.00;;;;;;5057194;28;20496;-66
2022/11/19 04:10:29;;;;;;;3.57;3.47;;;21.80;72.00;;;;;;5058595;28;21015;-66
2022/11/19 04:12:56;;;;;;;3.60;3.50;;;21.80;71.90;;;;;;5058762;28;20834;-65
2022/11/19 04:15:24;;;;;;;3.33;3.23;;;21.80;71.90;;;;;;5058533;28;20499;-66
2022/11/19 04:17:51;;;;;;;3.73;3.63;;;21.90;72.00;;;;;;5059255;28;20460;-66
2022/11/19 04:20:20;;;;;;;4.20;4.00;;;21.90;71.90;;;;;;5058213;28;20447;-65
2022/11/19 04:22:50;;;;;;;3.37;3.20;;;21.90;71.90;;;;;;5059300;28;20508;-66
2022/11/19 04:25:18;;;;;;;4.10;3.70;;;21.90;71.80;;;;;;5058828;28;21005;-66
2022/11/19 04:27:45;;;;;;;3.33;3.23;;;21.90;71.70;;;;;;5058281;28;20965;-65
2022/11/19 04:30:13;;;;;;;3.47;3.37;;;21.90;71.70;;;;;;5058267;28;20472;-66
2022/11/19 04:32:40;;;;;;;3.73;3.53;;;21.80;71.50;;;;;;5058503;28;20854;-65
2022/11/19 04:35:10;;;;;;;3.83;3.63;;;21.80;71.50;;;;;;5058267;28;20468;-67
2022/11/19 04:37:38;;;;;;;3.57;3.37;;;21.90;71.60;;;;;;5056844;28;20543;-66
2022/11/19 04:40:06;;;;;;;3.17;3.07;;;21.80;71.50;;;;;;5056102;28;20527;-65
2022/11/19 04:42:34;;;;;;;3.83;3.63;;;21.90;71.60;;;;;;5057452;28;20531;-65
2022/11/19 04:45:01;;;;;;;3.83;3.60;;;21.90;71.50;;;;;;5057001;28;20993;-67
2022/11/19 04:47:27;;;;;;;3.30;3.20;;;21.90;71.40;;;;;;5056531;28;20563;-66
2022/11/19 04:49:56;;;;;;;3.40;3.30;;;21.90;71.40;;;;;;5058341;28;20515;-66
2022/11/19 04:52:24;;;;;;;4.00;3.73;;;21.90;71.30;;;;;;5058099;28;20448;-66
2022/11/19 04:54:55;;;;;;;4.07;3.87;;;21.90;71.30;;;;;;5056885;28;20527;-65
2022/11/19 04:57:22;;;;;;;4.13;3.93;;;21.90;71.20;;;;;;5056154;28;20828;-67
2022/11/19 04:59:49;;;;;;;3.70;3.50;;;21.80;71.10;;;;;;5056476;28;20452;-65
2022/11/19 05:02:16;;;;;;;3.90;3.77;;;21.90;71.30;;;;;;5056093;28;20529;-67
2022/11/19 05:04:43;;;;;;;4.37;4.17;;;21.90;71.30;;;;;;5054085;28;20494;-67
2022/11/19 05:07:10;;;;;;;3.40;3.30;;;21.90;71.20;;;;;;5052576;28;20471;-67
2022/11/19 05:09:36;;;;;;;4.30;4.10;;;21.80;71.00;;;;;;5053167;28;20530;-68
2022/11/19 05:12:06;;;;;;;3.90;3.60;;;21.80;71.00;;;;;;5053078;28;21045;-66
2022/11/19 05:14:33;;;;;;;4.57;4.27;;;21.90;71.10;;;;;;5052821;28;20444;-68
2022/11/19 05:17:00;;;;;;;4.50;4.20;;;21.90;71.80;;;;;;5056279;28;20458;-64
2022/11/19 05:19:27;;;;;;;4.10;3.90;;;21.90;71.00;;;;;;5056205;28;20448;-64
2022/11/19 05:21:56;;;;;;;4.10;3.90;;;21.90;70.90;;;;;;5057600;28;20563;-64
2022/11/19 05:24:23;;;;;;;3.97;3.87;;;21.90;70.90;;;;;;5056689;28;20463;-64
2022/11/19 05:26:52;;;;;;;3.87;3.67;;;21.90;70.90;;;;;;5057338;28;20896;-65
2022/11/19 05:29:20;;;;;;;3.60;3.50;;;21.80;70.70;;;;;;5057155;28;20439;-65
2022/11/19 05:31:47;;;;;;;4.10;3.83;;;21.80;71.40;;;;;;5056083;28;20948;-66
2022/11/19 05:34:14;;;;;;;4.50;4.30;;;21.90;70.60;;;;;;5055464;28;20495;-65
2022/11/19 05:36:40;;;;;;;4.33;4.23;;;21.90;70.60;;;;;;5057349;28;20555;-65
2022/11/19 05:39:07;;;;;;;3.70;3.60;;;21.90;70.50;;;;;;5054846;28;20535;-61
2022/11/19 05:41:34;;;;;;;4.20;4.10;;;21.90;70.50;;;;;;5054052;28;20539;-60
2022/11/19 05:44:01;;;;;;;3.93;3.80;;;21.90;70.50;;;;;;5053632;28;20447;-60
2022/11/19 05:46:31;;;;;;;4.90;4.60;;;21.90;70.40;;;;;;5053221;28;20523;-60
2022/11/19 05:48:58;;;;;;;3.70;3.50;;;21.90;70.50;;;;;;5053306;28;20448;-59
2022/11/19 05:51:25;;;;;;;4.00;3.90;;;21.90;70.50;;;;;;5054677;28;20455;-62
2022/11/19 05:53:52;;;;;;;3.87;3.77;;;21.90;70.40;;;;;;5055881;28;20455;-63
2022/11/19 05:56:19;;;;;;;3.80;3.70;;;21.90;70.30;;;;;;5054672;28;20523;-60
2022/11/19 05:58:46;;;;;;;4.10;3.90;;;21.90;70.20;;;;;;5053087;28;20483;-61
2022/11/19 06:01:13;;;;;;;4.17;3.97;;;21.90;70.10;;;;;;5053016;28;20450;-61
2022/11/19 06:03:42;;;;;;;3.93;3.73;;;21.90;70.10;;;;;;5052691;28;21000;-54
2022/11/19 06:06:09;;;;;;;4.10;3.90;;;21.90;70.00;;;;;;5052861;28;20993;-57
2022/11/19 06:08:37;;;;;;;4.47;4.27;;;21.90;69.90;;;;;;5052801;28;20540;-62
2022/11/19 06:11:04;;;;;;;3.87;3.77;;;21.90;69.90;;;;;;5053291;28;20531;-64
2022/11/19 06:13:32;;;;;;;4.10;3.90;;;21.90;69.80;;;;;;5053421;28;20504;-61
2022/11/19 06:15:59;;;;;;;4.40;4.20;;;21.90;69.80;;;;;;5053279;28;20532;-59
2022/11/19 06:18:27;;;;;;;4.30;4.07;;;21.90;70.50;;;;;;5053660;28;20889;-63
2022/11/19 06:20:55;;;;;;;4.87;4.63;;;21.90;69.80;;;;;;5053171;28;20535;-62
2022/11/19 06:23:22;;;;;;;4.40;4.20;;;21.90;69.70;;;;;;5052303;28;20448;-64
2022/11/19 06:25:49;;;;;;;4.40;4.10;;;21.90;69.70;;;;;;5051660;28;20487;-60
2022/11/19 06:28:16;;;;;;;4.53;4.33;;;21.90;69.60;;;;;;5051531;28;20502;-62
2022/11/19 06:30:45;;;;;;;4.17;3.97;;;21.90;69.60;;;;;;5051890;28;20809;-59
2022/11/19 06:33:13;;;;;;;4.60;4.40;;;21.90;69.60;;;;;;5052089;28;20456;-62
2022/11/19 06:35:39;;;;;;;3.90;3.70;;;21.90;69.60;;;;;;5051824;28;20444;-57
2022/11/19 06:38:09;;;;;;;3.50;3.40;;;21.80;69.60;;;;;;5051726;28;20470;-62
2022/11/19 06:40:37;;;;;;;3.70;3.60;;;21.80;69.60;;;;;;5051910;28;20449;-61
2022/11/19 06:43:04;;;;;;;3.93;3.83;;;21.80;69.60;;;;;;5052031;28;20527;-58
2022/11/19 06:45:31;;;;;;;3.60;3.50;;;21.80;69.60;;;;;;5051850;28;20486;-63
2022/11/19 06:47:58;;;;;;;3.87;3.73;;;21.80;70.40;;;;;;5051505;28;20913;-64
2022/11/19 06:50:25;;;;;;;5.00;4.70;;;21.80;69.70;;;;;;5052040;28;20458;-63
2022/11/19 06:52:52;;;;;;;4.90;4.70;;;21.80;69.60;;;;;;5051737;28;20566;-62
2022/11/19 06:55:20;;;;;;;5.30;5.10;;;21.80;69.60;;;;;;5051895;28;20440;-53
2022/11/19 06:57:49;;;;;;;4.10;3.90;;;21.70;69.30;;;;;;5051431;28;20553;-53
2022/11/19 07:00:18;;;;;;;4.27;4.17;;;21.80;69.50;;;;;;5051668;28;20505;-59
2022/11/19 07:02:45;;;;;;;4.90;4.70;;;21.70;69.50;;;;;;5051607;28;20447;-57
2022/11/19 07:05:12;;;;;;;4.67;4.40;;;21.70;69.30;;;;;;5052357;28;20618;-56
2022/11/19 07:07:41;;;;;;;5.43;5.13;;;21.70;69.40;;;;;;5051503;28;20470;-54
2022/11/19 07:10:09;;;;;;;4.63;4.43;;;21.70;69.40;;;;;;5054761;28;21075;-60
2022/11/19 07:12:38;;;;;;;3.87;3.77;;;21.70;69.30;;;;;;5055660;28;20444;-52
2022/11/19 07:15:06;;;;;;;4.27;4.10;;;21.70;69.80;;;;;;5054997;28;20436;-57
2022/11/19 07:17:33;;;;;;;3.97;3.87;;;21.80;69.70;;;;;;5054975;28;20464;-56
2022/11/19 07:20:01;;;;;;;4.20;4.00;;;21.80;69.60;;;;;;5055385;28;20444;-51
2022/11/19 07:22:28;;;;;;;3.93;3.83;;;21.80;69.60;;;;;;5055539;28;20818;-54
2022/11/19 07:24:56;;;;;;;4.07;3.90;;;21.90;69.80;;;;;;5055374;28;20454;-53
2022/11/19 07:27:23;;;;;;;4.83;4.53;;;21.90;69.70;;;;;;5055160;28;20470;-52
2022/11/19 07:29:52;;;;;;;4.50;4.30;;;21.90;69.90;;;;;;5055378;28;20863;-58
2022/11/19 07:32:18;;;;;;;4.83;4.63;;;21.80;69.00;;;;;;5055105;28;20447;-57
2022/11/19 07:34:45;;;;;;;4.80;4.50;;;21.80;69.20;;;;;;5055196;28;20450;-53
2022/11/19 07:37:13;;;;;;;4.17;3.97;;;21.80;69.40;;;;;;5055087;28;20471;-58
2022/11/19 07:39:40;;;;;;;4.33;4.13;;;21.80;69.10;;;;;;5054843;28;20523;-51
2022/11/19 07:44:53;;;;;;;5.30;5.00;;;21.90;69.40;;;;;;5054683;28;20517;-58
2022/11/19 07:47:20;;;;;;;5.23;4.93;;;21.90;69.30;;;;;;5054518;28;20484;-54
2022/11/19 07:49:47;;;;;;;5.07;4.70;;;21.80;69.40;;;;;;5054941;28;20638;-53
2022/11/19 07:52:14;;;;;;;4.83;4.53;;;21.90;69.60;;;;;;5054939;28;20531;-58
2022/11/19 07:54:41;;;;;;;5.20;4.90;;;21.90;69.80;;;;;;5054630;28;20444;-54
2022/11/19 07:57:08;;;;;;;6.00;5.13;;;21.90;70.00;;;;;;5054120;28;20953;-60
2022/11/19 07:59:35;;;;;;;5.60;5.30;;;21.90;70.20;;;;;;5054638;28;20456;-51
2022/11/19 08:02:03;;;;;;;5.50;5.13;;;21.90;70.20;;;;;;5054531;28;20454;-57
2022/11/19 08:04:30;;;;;;;4.93;4.73;;;21.90;70.30;;;;;;5054548;28;20535;-60
2022/11/19 08:06:59;;;;;;;5.80;5.30;;;21.90;70.30;;;;;;5054019;28;20487;-54
2022/11/19 08:09:26;;;;;;;5.33;4.93;;;21.90;70.20;;;;;;5054626;28;20522;-54
2022/11/19 08:11:55;;;;;;;6.37;6.07;;;21.90;70.20;;;;;;5054506;28;20899;-56
2022/11/19 08:14:22;;;;;;;6.10;5.70;;;22.00;70.30;;;;;;5054580;28;20539;-61
2022/11/19 08:19:35;;;;;;;5.30;5.00;;;22.00;70.20;;;;;;5054511;28;20419;-58
2022/11/19 08:22:02;;;;;;;5.30;5.07;;;22.00;70.20;;;;;;5053600;28;20483;-60
2022/11/19 08:24:29;;;;;;;6.63;6.10;;;22.00;70.20;;;;;;5054622;28;20535;-61
2022/11/19 08:26:56;;;;;;;5.20;4.90;;;22.00;70.10;;;;;;5053523;28;20484;-58
2022/11/19 08:29:23;;;;;;;6.47;6.07;;;22.00;70.10;;;;;;5054128;28;20531;-62
2022/11/19 08:31:50;;;;;;;5.27;5.00;;;22.00;70.00;;;;;;5054302;28;20451;-58
2022/11/19 08:34:18;;;;;;;5.70;5.30;;;22.00;69.90;;;;;;5054127;28;20910;-59
2022/11/19 08:36:46;;;;;;;5.10;4.80;;;22.00;70.10;;;;;;5053674;28;20462;-59
2022/11/19 08:39:13;;;;;;;5.57;5.17;;;22.00;69.60;;;;;;5053890;28;20445;-61
2022/11/19 08:44:24;;;;;;;5.20;4.90;;;22.10;70.40;;;;;;5053818;28;20559;-55
2022/11/19 08:46:50;;;;;;;5.33;5.03;;;22.00;69.40;;;;;;5053249;28;20488;-55
2022/11/19 08:49:18;;;;;;;4.80;4.50;;;22.10;69.50;;;;;;5053576;28;20472;-57
2022/11/19 08:51:46;;;;;;;5.27;4.97;;;22.00;69.30;;;;;;5053693;28;20452;-63
2022/11/19 08:54:13;;;;;;;5.40;5.10;;;22.10;69.30;;;;;;5053478;28;20454;-63
2022/11/19 08:56:40;;;;;;;4.93;4.63;;;22.10;69.30;;;;;;5053705;28;20547;-59
2022/11/19 08:59:07;;;;;;;5.70;5.20;;;22.10;69.20;;;;;;5053200;28;20479;-54
2022/11/19 09:01:34;;;;;;;5.20;4.83;;;22.00;69.00;;;;;;5053370;28;20514;-58
2022/11/19 09:04:01;;;;;;;5.77;5.33;;;22.10;69.10;;;;;;5053572;28;20445;-53
2022/11/19 09:06:28;;;;;;;5.70;5.40;;;22.10;69.00;;;;;;5052875;28;20567;-62
2022/11/19 09:08:57;;;;;;;5.93;5.43;;;22.10;69.70;;;;;;5053368;28;20460;-53
2022/11/19 09:11:24;;;;;;;5.87;5.47;;;22.10;68.80;;;;;;5053351;28;20445;-62
2022/11/19 09:13:51;;;;;;;5.33;5.10;;;22.10;68.70;;;;;;5053117;28;20535;-59
2022/11/19 09:16:18;;;;;;;5.20;4.87;;;22.10;68.60;;;;;;5052245;28;20502;-58
2022/11/19 09:18:45;;;;;;;5.70;5.40;;;22.10;68.50;;;;;;5052872;28;20448;-53
2022/11/19 09:21:12;;;;;;;5.13;4.93;;;22.10;68.50;;;;;;5053112;28;20536;-59
2022/11/19 09:23:41;;;;;;;5.50;5.30;;;22.10;69.20;;;;;;5053146;28;20523;-57
2022/11/19 09:26:12;;;;;;;5.13;4.93;;;22.10;68.40;;;;;;5053210;28;20860;-59
2022/11/19 09:28:40;;;;;;;5.23;4.80;;;22.10;68.30;;;;;;5052849;28;20500;-58
2022/11/19 09:31:11;;;;;;;5.57;5.27;;;22.20;68.30;;;;;;5052480;28;20487;-59
2022/11/19 09:33:41;;;;;;;5.40;5.17;;;22.20;68.20;;;;;;5051586;28;20945;-60
2022/11/19 09:36:08;;;;;;;5.03;4.83;;;22.20;68.60;;;;;;5063138;28;20446;-66
2022/11/19 09:38:35;;;;;;;6.30;5.90;;;22.20;68.20;;;;;;5073916;28;20550;-65
2022/11/19 09:41:25;;;;;;;7.43;6.97;;;22.20;67.90;;;;;;5076831;28;20475;-67
2022/11/19 09:44:02;;;;;;;8.20;6.47;;;22.20;67.70;;;;;;5074031;28;20447;-66
2022/11/19 09:46:39;;;;;;;15.90;8.90;;;22.20;67.70;;;;;;5073828;28;21074;-63
2022/11/19 09:49:13;;;;;;;7.70;7.00;;;22.20;67.80;;;;;;5048467;28;20913;-62
2022/11/19 09:51:55;;;;;;;7.23;6.53;;;22.40;71.90;;;;;;5051322;28;20440;-64
2022/11/19 09:54:28;;;;;;;11.00;7.50;;;22.50;71.60;;;;;;5043287;28;20456;-64
2022/11/19 09:57:02;;;;;;;17.80;9.63;;;22.60;71.80;;;;;;5051188;28;20799;-63
2022/11/19 09:59:35;;;;;;;19.40;9.50;;;22.60;71.50;;;;;;5047439;28;20441;-62
2022/11/19 10:02:13;;;;;;;14.07;7.60;;;22.70;74.60;;;;;;5044559;28;20532;-63
2022/11/19 10:04:41;;;;;;;21.70;8.87;;;22.70;73.30;;;;;;5052027;28;20535;-63
2022/11/19 10:07:18;;;;;;;13.37;7.73;;;22.80;73.50;;;;;;5046928;28;20511;-62
2022/11/19 10:10:00;;;;;;;9.67;8.30;;;22.90;73.10;;;;;;5051943;28;20506;-61
2022/11/19 10:12:55;;;;;;;10.70;7.43;;;22.90;72.50;;;;;;5052207;28;20479;-59
2022/11/19 10:15:27;;;;;;;13.63;7.20;;;22.90;71.80;;;;;;5051738;28;20452;-61
2022/11/19 10:18:04;;;;;;;10.00;7.80;;;22.90;71.20;;;;;;5051578;28;20555;-60
2022/11/19 10:20:51;;;;;;;9.40;6.33;;;22.90;70.80;;;;;;5052069;28;20479;-60
2022/11/19 10:23:19;;;;;;;7.67;6.97;;;22.90;70.20;;;;;;5051659;28;20448;-62
2022/11/19 10:25:48;;;;;;;10.13;7.77;;;22.90;69.80;;;;;;5051664;28;20452;-60
2022/11/19 10:28:20;;;;;;;12.23;8.80;;;22.90;69.50;;;;;;5051740;28;20891;-62
2022/11/19 10:30:50;;;;;;;12.03;8.70;;;22.90;69.30;;;;;;5051966;28;20527;-62
2022/11/19 10:33:23;;;;;;;8.40;7.00;;;22.90;69.10;;;;;;5051805;28;20514;-62
2022/11/19 10:35:55;;;;;;;7.77;6.80;;;22.90;68.80;;;;;;5052116;28;20483;-64
2022/11/19 10:38:26;;;;;;;7.60;6.90;;;22.90;68.60;;;;;;5051711;28;20556;-62
2022/11/19 10:40:58;;;;;;;10.90;7.37;;;22.90;68.50;;;;;;5051440;28;20527;-62
2022/11/19 10:43:31;;;;;;;7.37;6.67;;;22.90;68.30;;;;;;5051330;28;20464;-62
2022/11/19 10:46:00;;;;;;;7.90;7.20;;;22.80;68.00;;;;;;5051508;28;20527;-62
2022/11/19 10:48:37;;;;;;;8.73;7.93;;;22.80;67.90;;;;;;5052377;28;20483;-63
2022/11/19 10:51:13;;;;;;;9.50;8.03;;;22.80;68.40;;;;;;5051912;28;20534;-62
2022/11/19 10:53:41;;;;;;;8.20;7.50;;;22.70;68.60;;;;;;5051590;28;20853;-63
2022/11/19 10:56:14;;;;;;;8.17;7.37;;;22.70;68.60;;;;;;5051477;28;20498;-65
2022/11/19 10:58:46;;;;;;;12.70;8.20;;;22.70;68.50;;;;;;5051525;28;20463;-63
2022/11/19 11:01:22;;;;;;;9.27;7.40;;;22.70;68.30;;;;;;5051223;28;20531;-63
2022/11/19 11:03:53;;;;;;;10.70;7.70;;;22.70;67.90;;;;;;5051593;28;20478;-63
2022/11/19 11:06:20;;;;;;;9.53;7.87;;;22.70;67.60;;;;;;5051182;28;20480;-63
2022/11/19 11:08:49;;;;;;;9.63;8.73;;;22.70;67.50;;;;;;5051490;28;20495;-63
2022/11/19 11:14:50;;;;;;;7.23;6.73;;;22.70;67.30;;;;;;5051327;28;20448;-63
2022/11/19 11:17:01;;;;;;;8.73;7.97;;;22.80;67.30;;;;;;5051080;28;20444;-64
2022/11/19 11:19:30;;;;;;;9.90;6.97;;;22.80;67.00;;;;;;5051345;28;20531;-63
2022/11/19 11:21:58;;;;;;;9.23;8.27;;;22.80;66.80;;;;;;5051324;28;20526;-64
2022/11/19 11:24:33;;;;;;;8.60;7.73;;;22.80;66.60;;;;;;5051542;28;20531;-62
2022/11/19 11:27:18;;;;;;;6.73;6.17;;;22.80;66.50;;;;;;5051053;28;20483;-63
2022/11/19 11:29:47;;;;;;;7.27;6.73;;;22.80;66.30;;;;;;5051338;28;20534;-65
2022/11/19 11:32:29;;;;;;;7.63;6.93;;;22.80;66.20;;;;;;5050883;28;20531;-62
2022/11/19 11:34:58;;;;;;;7.27;6.77;;;22.80;66.00;;;;;;5051310;28;20474;-63
2022/11/19 11:37:27;;;;;;;7.87;7.30;;;22.80;65.80;;;;;;5050962;28;21064;-64
2022/11/19 11:39:55;;;;;;;7.13;6.60;;;22.90;65.80;;;;;;5051310;28;20476;-63
2022/11/19 11:42:25;;;;;;;7.03;6.60;;;22.80;65.60;;;;;;5051098;28;20471;-64
2022/11/19 11:44:57;;;;;;;7.57;7.00;;;22.80;65.40;;;;;;5051147;28;20531;-64
2022/11/19 11:47:28;;;;;;;7.57;6.97;;;22.90;65.30;;;;;;5074465;22;21805;-66
2022/11/19 11:50:06;;;;;;;8.00;7.30;;;22.90;65.30;;;;;;5051366;28;20491;-66
2022/11/19 11:52:39;;;;;;;6.60;6.10;;;22.90;65.10;;;;;;5051161;28;20479;-69
2022/11/19 11:55:08;;;;;;;7.87;7.17;;;22.90;64.90;;;;;;5051401;28;20447;-68
2022/11/19 11:57:37;;;;;;;7.03;6.50;;;22.90;65.60;;;;;;5054667;28;20979;-66
2022/11/19 12:00:30;;;;;;;6.83;6.43;;;22.90;64.60;;;;;;5055289;28;20531;-65
2022/11/19 12:03:02;;;;;;;7.23;6.73;;;22.90;64.50;;;;;;5055109;28;20506;-68
2022/11/19 12:05:45;;;;;;;7.00;6.60;;;22.90;64.30;;;;;;5054794;28;20523;-67
2022/11/19 12:08:27;;;;;;;6.83;6.43;;;22.90;64.30;;;;;;5054543;28;20491;-66
2022/11/19 12:10:59;;;;;;;7.03;6.63;;;22.90;64.10;;;;;;5054622;28;20550;-65
2022/11/19 12:13:51;;;;;;;7.63;7.23;;;22.90;64.00;;;;;;5054426;28;20440;-66
2022/11/19 12:16:38;;;;;;;6.43;6.03;;;22.90;64.00;;;;;;5051847;28;20448;-66
2022/11/19 12:19:32;;;;;;;7.57;7.07;;;22.90;63.80;;;;;;5054311;28;20551;-68
2022/11/19 12:22:07;;;;;;;7.70;7.20;;;22.90;63.70;;;;;;5054178;28;20718;-68
2022/11/19 12:24:53;;;;;;;7.23;6.60;;;22.90;63.60;;;;;;5054300;28;20448;-68
2022/11/19 12:27:29;;;;;;;6.80;6.40;;;22.90;63.50;;;;;;5054175;28;20475;-69
2022/11/19 12:30:04;;;;;;;7.17;6.77;;;23.00;63.60;;;;;;5054068;28;20528;-68
2022/11/19 12:32:57;;;;;;;6.70;6.20;;;22.90;63.30;;;;;;5054077;28;20447;-69
2022/11/19 12:35:36;;;;;;;6.73;6.27;;;22.90;63.30;;;;;;5053784;28;20449;-65
2022/11/19 12:38:20;;;;;;;6.23;5.73;;;22.90;63.20;;;;;;5053848;28;20547;-67
2022/11/19 12:40:52;;;;;;;6.00;5.60;;;22.90;63.10;;;;;;5053920;28;20494;-67
2022/11/19 12:43:37;;;;;;;6.33;5.93;;;22.90;63.10;;;;;;5053540;28;20862;-68
2022/11/19 12:46:13;;;;;;;6.03;5.60;;;22.90;63.00;;;;;;5053828;28;20519;-66
2022/11/19 12:48:56;;;;;;;7.33;6.77;;;22.90;63.00;;;;;;5053469;28;20555;-67
2022/11/19 12:51:36;;;;;;;5.90;5.60;;;22.90;62.90;;;;;;5054677;28;20523;-67
2022/11/19 12:54:14;;;;;;;6.20;5.90;;;22.80;62.70;;;;;;5053876;28;20475;-68
2022/11/19 12:56:48;;;;;;;6.43;6.03;;;22.80;62.80;;;;;;5054169;28;20446;-69
2022/11/19 12:59:27;;;;;;;6.47;6.07;;;22.80;62.70;;;;;;5053577;28;20559;-62
2022/11/19 13:01:58;;;;;;;6.63;6.30;;;22.90;62.90;;;;;;5053746;28;20475;-63
2022/11/19 13:04:32;;;;;;;7.03;6.53;;;22.90;66.50;;;;;;5054194;28;20516;-64
2022/11/19 13:07:02;;;;;;;6.03;5.60;;;23.00;65.40;;;;;;5053104;28;20538;-66
2022/11/19 13:09:36;;;;;;;6.13;5.83;;;23.10;64.30;;;;;;5053648;28;20448;-67
2022/11/19 13:12:07;;;;;;;5.90;5.60;;;23.10;63.70;;;;;;5053270;28;20997;-67
2022/11/19 13:14:39;;;;;;;5.73;5.50;;;23.20;63.40;;;;;;5053274;28;20454;-66
2022/11/19 13:17:14;;;;;;;5.60;5.37;;;23.30;63.20;;;;;;5052600;28;20527;-66
2022/11/19 13:19:46;;;;;;;5.87;5.60;;;23.30;63.00;;;;;;5053207;28;20547;-65
2022/11/19 13:22:17;;;;;;;8.57;7.40;;;23.40;62.80;;;;;;5053263;28;20531;-67
2022/11/19 13:24:49;;;;;;;5.57;5.30;;;23.40;62.60;;;;;;5052834;28;20444;-67
2022/11/19 13:27:20;;;;;;;7.37;6.97;;;23.40;62.40;;;;;;5053105;28;20579;-70
2022/11/19 13:29:52;;;;;;;7.40;6.90;;;23.50;62.40;;;;;;5054035;28;20858;-67